Time;durP1;ratioP1;P1;durP2;ratioP2;P2;SDS_P1;SDS_P2;PMS_P1;PMS_P2;Temp;Humidity;BMP_temperature;BMP_pressure;BME280_temperature;BME280_humidity;BME280_pressure;Samples;Min_cycle;Max_cycle;Signal;HPM_P1;HPM_P2
2021/11/05 00:02:21;;;;;;;;;;;9.80;88.70;;;;;;5089161;28;20358;-76
2021/11/05 00:04:46;;;;;;;;;;;9.80;88.70;;;;;;5088981;28;19912;-76
2021/11/05 00:07:12;;;;;;;;;;;9.80;88.80;;;;;;5088866;28;20607;-75
2021/11/05 00:09:37;;;;;;;;;;;9.80;88.80;;;;;;5088943;28;19908;-75
2021/11/05 00:12:03;;;;;;;;;;;9.70;88.90;;;;;;5089026;28;19915;-73
2021/11/05 00:14:29;;;;;;;;;;;9.70;89.00;;;;;;5089268;28;19916;-75
2021/11/05 00:16:54;;;;;;;;;;;9.70;89.00;;;;;;5088667;28;19921;-73
2021/11/05 00:19:20;;;;;;;;;;;9.70;89.10;;;;;;5088882;28;19913;-74
2021/11/05 00:21:45;;;;;;;;;;;9.70;89.20;;;;;;5088796;28;19919;-73
2021/11/05 00:24:11;;;;;;;;;;;9.70;89.40;;;;;;5088603;28;20244;-73
2021/11/05 00:26:36;;;;;;;;;;;9.70;89.40;;;;;;5087386;28;19920;-75
2021/11/05 00:29:02;;;;;;;;;;;9.70;89.50;;;;;;5088528;28;19916;-74
2021/11/05 00:31:28;;;;;;;;;;;9.60;89.60;;;;;;5088049;28;19963;-78
2021/11/05 00:33:53;;;;;;;;;;;9.60;89.70;;;;;;5088732;28;20011;-74
2021/11/05 00:36:19;;;;;;;;;;;9.60;89.80;;;;;;5088369;28;20358;-73
2021/11/05 00:38:45;;;;;;;;;;;9.70;89.90;;;;;;5088461;28;20295;-73
2021/11/05 00:41:11;;;;;;;;;;;9.70;90.00;;;;;;5088163;28;19961;-75
2021/11/05 00:43:36;;;;;;;;;;;9.70;90.00;;;;;;5088325;28;19920;-75
2021/11/05 00:46:02;;;;;;;;;;;9.70;90.00;;;;;;5088249;28;19912;-76
2021/11/05 00:48:28;;;;;;;;;;;9.70;90.00;;;;;;5087973;28;20210;-73
2021/11/05 00:50:53;;;;;;;;;;;9.70;90.10;;;;;;5088102;28;20282;-74
2021/11/05 00:53:19;;;;;;;;;;;9.70;90.10;;;;;;5088465;28;19943;-74
2021/11/05 00:55:44;;;;;;;;;;;9.70;90.10;;;;;;5088117;28;20025;-73
2021/11/05 00:58:10;;;;;;;;;;;9.70;90.10;;;;;;5086884;28;19913;-73
2021/11/05 01:00:36;;;;;;;;;;;9.80;90.10;;;;;;5088276;28;19912;-74
2021/11/05 01:03:01;;;;;;;;;;;9.80;90.10;;;;;;5088286;28;19915;-76
2021/11/05 01:05:27;;;;;;;;;;;9.80;90.20;;;;;;5088420;28;19938;-75
2021/11/05 01:07:53;;;;;;;;;;;9.80;90.20;;;;;;5086800;28;19916;-76
2021/11/05 01:10:19;;;;;;;;;;;9.80;90.20;;;;;;5088278;28;19915;-77
2021/11/05 01:12:44;;;;;;;;;;;9.80;90.30;;;;;;5088138;28;20591;-73
2021/11/05 01:15:11;;;;;;;;;;;9.70;90.50;;;;;;5088062;28;19943;-73
2021/11/05 01:17:37;;;;;;;;;;;9.80;90.40;;;;;;5087823;28;20011;-76
2021/11/05 01:20:04;;;;;;;;;;;9.80;90.40;;;;;;5086768;28;19908;-74
2021/11/05 01:22:30;;;;;;;;;;;9.80;90.50;;;;;;5087979;28;19908;-74
2021/11/05 01:24:55;;;;;;;;;;;9.80;90.60;;;;;;5088216;28;19909;-73
2021/11/05 01:27:21;;;;;;;;;;;9.80;90.60;;;;;;5087952;28;19951;-76
2021/11/05 01:29:47;;;;;;;;;;;9.80;90.60;;;;;;5087920;28;19920;-77
2021/11/05 01:32:13;;;;;;;;;;;9.80;90.70;;;;;;5088134;28;19925;-74
2021/11/05 01:34:39;;;;;;;;;;;9.80;90.70;;;;;;5088147;28;19912;-75
2021/11/05 01:37:04;;;;;;;;;;;9.80;90.80;;;;;;5087778;28;19923;-76
2021/11/05 01:39:30;;;;;;;;;;;9.80;90.80;;;;;;5087903;28;19947;-76
2021/11/05 01:41:56;;;;;;;;;;;9.70;90.80;;;;;;5090152;28;19935;-75
2021/11/05 01:44:23;;;;;;;;;;;9.70;90.80;;;;;;5091771;28;19912;-74
2021/11/05 01:46:48;;;;;;;;;;;9.70;90.90;;;;;;5091503;28;20362;-73
2021/11/05 01:49:14;;;;;;;;;;;9.60;90.90;;;;;;5091693;28;19916;-77
2021/11/05 01:51:40;;;;;;;;;;;9.60;90.90;;;;;;5091623;28;19995;-75
2021/11/05 01:54:10;;;;;;;;;;;9.60;91.00;;;;;;5091626;28;19943;-75
2021/11/05 01:56:36;;;;;;;;;;;9.60;91.00;;;;;;5091404;28;20371;-75
2021/11/05 01:59:02;;;;;;;;;;;9.60;91.00;;;;;;5091539;28;19914;-75
2021/11/05 02:01:28;;;;;;;;;;;9.50;91.10;;;;;;5091787;28;19912;-75
2021/11/05 02:03:54;;;;;;;;;;;9.50;91.20;;;;;;5091441;28;20319;-76
2021/11/05 02:06:20;;;;;;;;;;;9.50;91.20;;;;;;5090111;28;19924;-74
2021/11/05 02:08:46;;;;;;;;;;;9.50;91.30;;;;;;5091407;28;20354;-76
2021/11/05 02:11:12;;;;;;;;;;;9.60;91.40;;;;;;5090036;28;19962;-72
2021/11/05 02:13:41;;;;;;;;;;;9.60;91.50;;;;;;5091403;28;20345;-76
2021/11/05 02:16:08;;;;;;;;;;;9.60;91.50;;;;;;5091177;28;20255;-75
2021/11/05 02:18:33;;;;;;;;;;;9.60;91.50;;;;;;5091532;28;19909;-74
2021/11/05 02:21:01;;;;;;;;;;;9.60;91.60;;;;;;5091146;28;20429;-77
2021/11/05 02:23:27;;;;;;;;;;;9.60;91.60;;;;;;5089625;28;19912;-75
2021/11/05 02:25:52;;;;;;;;;;;9.60;91.60;;;;;;5089780;28;19943;-76
2021/11/05 02:28:18;;;;;;;;;;;9.70;91.70;;;;;;5091096;28;19915;-74
2021/11/05 02:30:44;;;;;;;;;;;9.70;91.70;;;;;;5090961;28;19912;-77
2021/11/05 02:33:09;;;;;;;;;;;9.70;91.70;;;;;;5091041;28;19962;-76
2021/11/05 02:35:36;;;;;;;;;;;9.70;91.80;;;;;;5090835;28;19916;-73
2021/11/05 02:38:02;;;;;;;;;;;9.70;91.90;;;;;;5089506;28;19909;-76
2021/11/05 02:40:27;;;;;;;;;;;9.70;91.90;;;;;;5090734;28;19922;-74
2021/11/05 02:42:53;;;;;;;;;;;9.70;91.90;;;;;;5090811;28;20388;-74
2021/11/05 02:45:18;;;;;;;;;;;9.70;91.90;;;;;;5090654;28;19974;-75
2021/11/05 02:47:44;;;;;;;;;;;9.70;91.90;;;;;;5090551;28;19920;-73
2021/11/05 02:50:12;;;;;;;;;;;9.70;92.00;;;;;;5090627;28;19912;-75
2021/11/05 02:52:38;;;;;;;;;;;9.70;92.00;;;;;;5089680;28;19908;-74
2021/11/05 02:55:05;;;;;;;;;;;9.70;92.00;;;;;;5089115;28;19912;-77
2021/11/05 02:57:31;;;;;;;;;;;9.70;92.00;;;;;;5090275;28;19912;-73
2021/11/05 02:59:57;;;;;;;;;;;9.70;92.00;;;;;;5090731;28;19916;-72
2021/11/05 03:02:25;;;;;;;;;;;9.70;92.00;;;;;;5090417;28;19915;-76
2021/11/05 03:04:52;;;;;;;;;;;9.70;92.10;;;;;;5090378;28;19916;-75
2021/11/05 03:07:17;;;;;;;;;;;9.70;92.10;;;;;;5090231;28;20222;-76
2021/11/05 03:09:43;;;;;;;;;;;9.70;92.20;;;;;;5090134;28;19923;-76
2021/11/05 03:12:10;;;;;;;;;;;9.70;92.20;;;;;;5090170;28;20305;-76
2021/11/05 03:14:36;;;;;;;;;;;9.70;92.20;;;;;;5090062;28;20007;-74
2021/11/05 03:17:02;;;;;;;;;;;9.70;92.30;;;;;;5089889;28;19982;-76
2021/11/05 03:19:28;;;;;;;;;;;9.70;92.30;;;;;;5089929;28;19920;-73
2021/11/05 03:21:54;;;;;;;;;;;9.70;92.40;;;;;;5090004;28;20271;-74
2021/11/05 03:24:19;;;;;;;;;;;9.70;92.40;;;;;;5089896;28;20262;-77
2021/11/05 03:26:45;;;;;;;;;;;9.70;92.50;;;;;;5089798;28;19913;-76
2021/11/05 03:29:11;;;;;;;;;;;9.70;92.50;;;;;;5089756;28;19943;-74
2021/11/05 03:31:37;;;;;;;;;;;9.70;92.60;;;;;;5089825;28;19973;-75
2021/11/05 03:34:03;;;;;;;;;;;9.60;92.60;;;;;;5089775;28;19915;-78
2021/11/05 03:36:28;;;;;;;;;;;9.60;92.70;;;;;;5089610;28;19912;-73
2021/11/05 03:38:54;;;;;;;;;;;9.60;92.70;;;;;;5089494;28;20389;-75
2021/11/05 03:41:19;;;;;;;;;;;9.60;92.80;;;;;;5089589;28;20050;-74
2021/11/05 03:43:45;;;;;;;;;;;9.60;92.80;;;;;;5089562;28;20347;-76
2021/11/05 03:46:11;;;;;;;;;;;9.60;92.80;;;;;;5089353;28;19916;-76
2021/11/05 03:48:39;;;;;;;;;;;9.60;92.90;;;;;;5089304;28;19931;-73
2021/11/05 03:51:05;;;;;;;;;;;9.60;92.90;;;;;;5088332;28;19912;-72
2021/11/05 03:53:31;;;;;;;;;;;9.60;92.90;;;;;;5089879;28;19913;-76
2021/11/05 03:55:56;;;;;;;;;;;9.60;92.90;;;;;;5089646;28;19937;-74
2021/11/05 03:58:22;;;;;;;;;;;9.70;92.90;;;;;;5089297;28;19961;-73
2021/11/05 04:00:47;;;;;;;;;;;9.70;92.90;;;;;;5089217;28;19912;-77
2021/11/05 04:03:13;;;;;;;;;;;9.70;92.90;;;;;;5089154;28;19909;-75
2021/11/05 04:05:39;;;;;;;;;;;9.70;92.90;;;;;;5087814;28;20032;-77
2021/11/05 04:08:04;;;;;;;;;;;9.80;92.90;;;;;;5089103;28;20006;-76
2021/11/05 04:10:30;;;;;;;;;;;9.80;92.90;;;;;;5089072;28;20416;-76
2021/11/05 04:12:57;;;;;;;;;;;9.80;92.90;;;;;;5089040;28;19942;-76
2021/11/05 04:15:23;;;;;;;;;;;9.80;92.90;;;;;;5089014;28;19912;-74
2021/11/05 04:17:49;;;;;;;;;;;9.70;92.90;;;;;;5088801;28;20429;-77
2021/11/05 04:20:14;;;;;;;;;;;9.80;92.90;;;;;;5088908;28;19913;-76
2021/11/05 04:22:40;;;;;;;;;;;9.70;92.90;;;;;;5088802;28;19923;-75
2021/11/05 04:25:06;;;;;;;;;;;9.70;93.00;;;;;;5088758;28;19919;-74
2021/11/05 04:27:32;;;;;;;;;;;9.70;93.10;;;;;;5088751;28;19912;-76
2021/11/05 04:29:58;;;;;;;;;;;9.70;93.20;;;;;;5088788;28;20102;-75
2021/11/05 04:32:23;;;;;;;;;;;9.70;93.20;;;;;;5087430;28;20280;-77
2021/11/05 04:34:49;;;;;;;;;;;9.70;93.20;;;;;;5088673;28;19966;-74
2021/11/05 04:37:14;;;;;;;;;;;9.80;93.20;;;;;;5088540;28;19981;-73
2021/11/05 04:39:40;;;;;;;;;;;9.80;93.20;;;;;;5088792;28;20354;-76
2021/11/05 04:42:06;;;;;;;;;;;9.80;93.20;;;;;;5088612;28;19912;-74
2021/11/05 04:44:31;;;;;;;;;;;9.80;93.20;;;;;;5088529;28;19920;-74
2021/11/05 04:46:57;;;;;;;;;;;9.80;93.30;;;;;;5087144;28;20323;-75
2021/11/05 04:49:23;;;;;;;;;;;9.80;93.30;;;;;;5087126;28;19916;-75
2021/11/05 04:51:51;;;;;;;;;;;9.80;93.30;;;;;;5088408;28;19999;-76
2021/11/05 04:54:17;;;;;;;;;;;9.80;93.30;;;;;;5088378;28;19923;-74
2021/11/05 04:56:43;;;;;;;;;;;9.80;93.30;;;;;;5087880;28;19913;-76
2021/11/05 04:59:09;;;;;;;;;;;9.80;93.40;;;;;;5088062;28;19921;-76
2021/11/05 05:01:35;;;;;;;;;;;9.80;93.40;;;;;;5088068;28;20424;-76
2021/11/05 05:04:00;;;;;;;;;;;9.80;93.50;;;;;;5087332;28;19950;-73
2021/11/05 05:06:26;;;;;;;;;;;9.80;93.50;;;;;;5086815;28;19962;-76
2021/11/05 05:08:52;;;;;;;;;;;9.80;93.50;;;;;;5088213;28;20002;-76
2021/11/05 05:11:17;;;;;;;;;;;9.80;93.50;;;;;;5088201;28;19912;-76
2021/11/05 05:13:43;;;;;;;;;;;9.80;93.50;;;;;;5088262;28;19914;-75
2021/11/05 05:16:08;;;;;;;;;;;9.90;93.50;;;;;;5088981;28;19916;-76
2021/11/05 05:18:34;;;;;;;;;;;9.80;93.50;;;;;;5090904;28;19973;-76
2021/11/05 05:20:59;;;;;;;;;;;9.80;93.50;;;;;;5092290;28;19916;-76
2021/11/05 05:23:25;;;;;;;;;;;9.80;93.60;;;;;;5092060;28;19930;-72
2021/11/05 05:25:51;;;;;;;;;;;9.80;93.60;;;;;;5092077;28;19927;-75
2021/11/05 05:28:16;;;;;;;;;;;9.90;93.60;;;;;;5092098;28;19920;-74
2021/11/05 05:30:42;;;;;;;;;;;9.80;93.60;;;;;;5092066;28;20367;-74
2021/11/05 05:33:07;;;;;;;;;;;9.80;93.60;;;;;;5092078;28;19981;-74
2021/11/05 05:35:33;;;;;;;;;;;9.80;93.70;;;;;;5091895;28;20370;-75
2021/11/05 05:37:59;;;;;;;;;;;9.80;93.70;;;;;;5091729;28;19927;-73
2021/11/05 05:40:25;;;;;;;;;;;9.80;93.70;;;;;;5091924;28;20287;-74
2021/11/05 05:42:50;;;;;;;;;;;9.80;93.80;;;;;;5091914;28;20002;-75
2021/11/05 05:45:16;;;;;;;;;;;9.90;93.80;;;;;;5090576;28;20382;-75
2021/11/05 05:47:42;;;;;;;;;;;9.80;93.80;;;;;;5090122;28;19924;-73
2021/11/05 05:50:10;;;;;;;;;;;9.80;93.80;;;;;;5091765;28;19951;-72
2021/11/05 05:52:35;;;;;;;;;;;9.80;93.80;;;;;;5090328;28;19908;-74
2021/11/05 05:55:01;;;;;;;;;;;9.80;93.70;;;;;;5091609;28;19915;-74
2021/11/05 05:57:27;;;;;;;;;;;9.80;93.80;;;;;;5091510;28;19970;-73
2021/11/05 05:59:52;;;;;;;;;;;9.80;93.80;;;;;;5091451;28;19912;-74
2021/11/05 06:02:18;;;;;;;;;;;9.80;93.90;;;;;;5090216;28;19961;-75
2021/11/05 06:04:44;;;;;;;;;;;9.80;93.90;;;;;;5091515;28;20007;-75
2021/11/05 06:07:09;;;;;;;;;;;9.90;93.90;;;;;;5091455;28;20111;-74
2021/11/05 06:09:35;;;;;;;;;;;9.90;93.90;;;;;;5091795;28;19912;-73
2021/11/05 06:12:00;;;;;;;;;;;9.90;93.90;;;;;;5091147;28;19988;-74
2021/11/05 06:14:26;;;;;;;;;;;9.90;93.90;;;;;;5091209;28;20370;-73
2021/11/05 06:16:51;;;;;;;;;;;9.90;93.90;;;;;;5091100;28;20070;-77
2021/11/05 06:19:17;;;;;;;;;;;9.90;94.00;;;;;;5091045;28;19920;-73
2021/11/05 06:21:42;;;;;;;;;;;9.90;93.90;;;;;;5089709;28;19913;-73
2021/11/05 06:24:08;;;;;;;;;;;9.90;94.00;;;;;;5091024;28;19922;-75
2021/11/05 06:26:34;;;;;;;;;;;9.90;94.00;;;;;;5090236;28;20266;-74
2021/11/05 06:29:02;;;;;;;;;;;9.90;94.00;;;;;;5089351;28;20015;-75
2021/11/05 06:31:29;;;;;;;;;;;10.00;94.00;;;;;;5090696;28;19923;-75
2021/11/05 06:33:54;;;;;;;;;;;10.00;94.00;;;;;;5090465;28;19912;-74
2021/11/05 06:36:20;;;;;;;;;;;10.00;94.00;;;;;;5089353;28;19920;-74
2021/11/05 06:38:46;;;;;;;;;;;10.00;94.00;;;;;;5089534;28;20270;-77
2021/11/05 06:41:13;;;;;;;;;;;10.00;94.10;;;;;;5090649;28;19922;-77
2021/11/05 06:43:40;;;;;;;;;;;10.00;94.10;;;;;;5089516;28;19963;-74
2021/11/05 06:46:05;;;;;;;;;;;10.10;94.10;;;;;;5090955;28;20240;-74
2021/11/05 06:48:33;;;;;;;;;;;10.10;94.10;;;;;;5090487;28;19928;-76
2021/11/05 06:50:59;;;;;;;;;;;10.10;94.10;;;;;;5089082;28;19908;-77
2021/11/05 06:53:24;;;;;;;;;;;10.10;94.10;;;;;;5090364;28;19961;-77
2021/11/05 06:55:50;;;;;;;;;;;10.10;94.10;;;;;;5090240;28;19947;-75
2021/11/05 06:58:16;;;;;;;;;;;10.10;94.20;;;;;;5090250;28;20385;-75
2021/11/05 07:00:42;;;;;;;;;;;10.20;94.20;;;;;;5089015;28;19920;-74
2021/11/05 07:03:07;;;;;;;;;;;10.10;94.20;;;;;;5090526;28;20358;-76
2021/11/05 07:05:34;;;;;;;;;;;10.10;94.20;;;;;;5090012;28;19908;-73
2021/11/05 07:08:00;;;;;;;;;;;10.10;94.20;;;;;;5090045;28;19923;-77
2021/11/05 07:10:26;;;;;;;;;;;10.10;94.20;;;;;;5088802;28;19912;-74
2021/11/05 07:12:51;;;;;;;;;;;10.10;94.20;;;;;;5088688;28;20380;-74
2021/11/05 07:15:20;;;;;;;;;;;10.10;94.30;;;;;;5089850;28;19908;-76
2021/11/05 07:17:46;;;;;;;;;;;10.10;94.30;;;;;;5089601;28;20010;-75
2021/11/05 07:20:12;;;;;;;;;;;10.10;94.30;;;;;;5089357;28;20037;-76
2021/11/05 07:22:38;;;;;;;;;;;10.10;94.30;;;;;;5089653;28;20382;-75
2021/11/05 07:25:04;;;;;;;;;;;10.10;94.30;;;;;;5089956;28;19915;-76
2021/11/05 07:27:30;;;;;;;;;;;10.00;94.50;;;;;;5089631;28;19935;-75
2021/11/05 07:29:57;;;;;;;;;;;10.00;94.30;;;;;;5089644;28;19912;-74
2021/11/05 07:32:22;;;;;;;;;;;10.10;94.40;;;;;;5089592;28;20418;-77
2021/11/05 07:34:53;;;;;;;;;;;10.10;94.40;;;;;;5089385;28;20387;-75
2021/11/05 07:37:19;;;;;;;;;;;10.10;94.40;;;;;;5087923;28;20275;-75
2021/11/05 07:39:46;;;;;;;;;;;10.10;94.40;;;;;;5089080;28;19923;-77
2021/11/05 07:42:12;;;;;;;;;;;10.10;94.50;;;;;;5088059;28;19924;-74
2021/11/05 07:44:38;;;;;;;;;;;10.10;94.50;;;;;;5089404;28;19912;-74
2021/11/05 07:47:04;;;;;;;;;;;10.10;94.60;;;;;;5088887;28;19916;-75
2021/11/05 07:49:30;;;;;;;;;;;10.10;94.60;;;;;;5089304;28;19920;-75
2021/11/05 07:51:55;;;;;;;;;;;10.10;94.70;;;;;;5089382;28;20366;-76
2021/11/05 07:54:21;;;;;;;;;;;10.10;94.70;;;;;;5087644;28;19967;-76
2021/11/05 07:56:48;;;;;;;;;;;10.10;94.70;;;;;;5088693;28;19916;-74
2021/11/05 07:59:14;;;;;;;;;;;10.00;94.70;;;;;;5088718;28;19991;-76
2021/11/05 08:01:40;;;;;;;;;;;10.10;94.80;;;;;;5088775;28;20343;-77
2021/11/05 08:04:05;;;;;;;;;;;10.10;94.70;;;;;;5088731;28;19908;-73
2021/11/05 08:06:31;;;;;;;;;;;10.10;94.70;;;;;;5088654;28;20376;-75
2021/11/05 08:08:57;;;;;;;;;;;10.10;94.70;;;;;;5087478;28;20423;-75
2021/11/05 08:11:22;;;;;;;;;;;10.10;94.80;;;;;;5088643;28;19958;-75
2021/11/05 08:13:48;;;;;;;;;;;10.10;94.80;;;;;;5088794;28;20346;-73
2021/11/05 08:16:13;;;;;;;;;;;10.10;94.80;;;;;;5088531;28;19969;-76
2021/11/05 08:18:39;;;;;;;;;;;10.10;94.90;;;;;;5088635;28;20358;-76
2021/11/05 08:21:05;;;;;;;;;;;10.10;95.00;;;;;;5088637;28;20010;-74
2021/11/05 08:23:30;;;;;;;;;;;10.20;95.00;;;;;;5087947;28;19912;-75
2021/11/05 08:25:56;;;;;;;;;;;10.20;95.00;;;;;;5088404;28;19916;-75
2021/11/05 08:28:22;;;;;;;;;;;10.20;94.90;;;;;;5088294;28;19950;-77
2021/11/05 08:30:49;;;;;;;;;;;10.30;94.90;;;;;;5088371;28;20042;-75
2021/11/05 08:33:15;;;;;;;;;;;10.30;94.90;;;;;;5088054;28;20057;-76
2021/11/05 08:35:44;;;;;;;;;;;10.30;94.90;;;;;;5087246;28;20026;-75
2021/11/05 08:38:15;;;;;;;;;;;10.30;94.90;;;;;;5086801;28;19939;-75
2021/11/05 08:40:45;;;;;;;;;;;10.30;94.90;;;;;;5087764;28;20297;-75
2021/11/05 08:43:11;;;;;;;;;;;10.40;95.00;;;;;;5087695;28;20397;-77
2021/11/05 08:45:37;;;;;;;;;;;10.40;95.00;;;;;;5087888;28;20046;-77
2021/11/05 08:48:03;;;;;;;;;;;10.50;95.00;;;;;;5087713;28;20007;-75
2021/11/05 08:50:29;;;;;;;;;;;10.50;95.00;;;;;;5086964;28;19920;-75
2021/11/05 08:52:55;;;;;;;;;;;10.50;94.90;;;;;;5087189;28;19961;-77
2021/11/05 08:55:21;;;;;;;;;;;10.60;95.00;;;;;;5087665;28;19916;-76
2021/11/05 08:57:47;;;;;;;;;;;10.60;94.90;;;;;;5087378;28;19961;-76
2021/11/05 09:00:18;;;;;;;;;;;10.70;94.90;;;;;;5086129;28;20265;-76
2021/11/05 09:02:44;;;;;;;;;;;10.80;94.90;;;;;;5085989;28;19916;-76
2021/11/05 09:05:10;;;;;;;;;;;10.90;94.90;;;;;;5087040;28;19930;-75
2021/11/05 09:07:35;;;;;;;;;;;10.90;94.80;;;;;;5085645;28;19913;-74
2021/11/05 09:10:01;;;;;;;;;;;11.00;94.80;;;;;;5087842;28;19948;-74
2021/11/05 09:12:27;;;;;;;;;;;11.00;94.70;;;;;;5087742;28;19965;-76
2021/11/05 09:14:53;;;;;;;;;;;11.00;94.70;;;;;;5088475;28;19931;-75
2021/11/05 09:17:19;;;;;;;;;;;11.00;94.60;;;;;;5089627;28;20297;-73
2021/11/05 09:19:44;;;;;;;;;;;11.00;94.60;;;;;;5089093;28;19947;-75
2021/11/05 09:22:10;;;;;;;;;;;11.00;94.70;;;;;;5089249;28;20390;-75
2021/11/05 09:24:35;;;;;;;;;;;11.00;94.70;;;;;;5081270;28;19924;-74
2021/11/05 09:27:01;;;;;;;;;;;11.10;94.70;;;;;;5067157;28;20378;-76
2021/11/05 09:29:26;;;;;;;;;;;11.10;94.70;;;;;;5068401;28;19995;-76
2021/11/05 09:31:52;;;;;;;;;;;11.10;94.70;;;;;;5068841;28;19952;-75
2021/11/05 09:34:18;;;;;;;;;;;11.10;94.70;;;;;;5069457;28;19979;-76
2021/11/05 09:36:44;;;;;;;;;;;11.10;94.70;;;;;;5081706;28;20011;-75
2021/11/05 09:39:09;;;;;;;;;;;11.20;94.80;;;;;;5088843;28;20350;-75
2021/11/05 09:41:35;;;;;;;;;;;11.30;94.90;;;;;;5081670;28;19916;-76
2021/11/05 09:44:01;;;;;;;;;;;11.40;94.90;;;;;;5088602;28;19932;-75
2021/11/05 09:46:27;;;;;;;;;;;11.60;94.90;;;;;;5092086;28;19952;-77
2021/11/05 09:48:53;;;;;;;;;;;11.90;94.90;;;;;;5094406;28;20015;-76
2021/11/05 09:51:18;;;;;;;;;;;12.10;94.70;;;;;;5093198;28;20438;-75
2021/11/05 09:53:44;;;;;;;;;;;12.30;94.50;;;;;;5093902;28;19916;-76
2021/11/05 09:56:13;;;;;;;;;;;12.50;94.40;;;;;;5094699;28;19917;-77
2021/11/05 09:58:39;;;;;;;;;;;12.70;94.50;;;;;;5093632;28;19915;-77
2021/11/05 10:01:05;;;;;;;;;;;12.90;94.50;;;;;;5089045;28;19912;-78
2021/11/05 10:03:32;;;;;;;;;;;13.10;93.90;;;;;;5097700;28;19908;-77
2021/11/05 10:05:57;;;;;;;;;;;13.10;93.80;;;;;;5098845;28;20269;-74
2021/11/05 10:08:31;;;;;;;;;;;13.00;93.70;;;;;;5099563;28;19908;-77
2021/11/05 10:10:58;;;;;;;;;;;13.00;93.70;;;;;;5098434;28;19951;-77
2021/11/05 10:13:25;;;;;;;;;;;13.00;93.50;;;;;;5098446;28;19969;-76
2021/11/05 10:15:53;;;;;;;;;;;12.90;93.30;;;;;;5098436;28;20571;-76
2021/11/05 10:18:24;;;;;;;;;;;12.80;93.40;;;;;;5104624;28;20006;-75
2021/11/05 10:21:05;;;;;;;;;;;12.80;93.50;;;;;;5108380;28;20236;-77
2021/11/05 10:23:35;;;;;;;;;;;12.80;93.60;;;;;;5102098;28;19923;-75
2021/11/05 10:26:02;;;;;;;;;;;13.00;93.70;;;;;;5106551;28;19908;-75
2021/11/05 10:28:28;;;;;;;;;;;13.40;94.10;;;;;;5110177;28;19950;-81
2021/11/05 10:30:56;;;;;;;;;;;13.80;93.50;;;;;;5110496;28;19912;-71
2021/11/05 10:33:24;;;;;;;;;;;13.80;93.00;;;;;;5096663;28;19908;-76
2021/11/05 10:35:51;;;;;;;;;;;13.80;92.70;;;;;;5094991;28;20369;-74
2021/11/05 10:38:18;;;;;;;;;;;13.80;92.80;;;;;;5103357;28;20060;-76
2021/11/05 10:40:54;;;;;;;;;;;13.70;92.80;;;;;;5104853;28;20251;-76
2021/11/05 10:43:31;;;;;;;;;;;13.80;92.80;;;;;;5097696;28;19915;-74
2021/11/05 10:45:57;;;;;;;;;;;13.80;92.70;;;;;;5095774;28;19966;-76
2021/11/05 10:48:26;;;;;;;;;;;13.70;92.70;;;;;;5099719;28;20330;-73
2021/11/05 10:50:53;;;;;;;;;;;13.70;92.60;;;;;;5104794;28;19919;-74
2021/11/05 10:53:21;;;;;;;;;;;13.70;92.70;;;;;;5102175;28;20058;-74
2021/11/05 10:55:51;;;;;;;;;;;13.60;92.70;;;;;;5101852;28;19919;-75
2021/11/05 10:58:27;;;;;;;;;;;13.60;92.80;;;;;;5096491;28;19920;-77
2021/11/05 11:00:55;;;;;;;;;;;13.60;92.90;;;;;;5100198;28;20387;-75
2021/11/05 11:03:31;;;;;;;;;;;13.70;92.90;;;;;;5098378;28;19919;-76
2021/11/05 11:06:03;;;;;;;;;;;13.70;92.90;;;;;;5099853;28;20374;-73
2021/11/05 11:08:29;;;;;;;;;;;13.70;92.80;;;;;;5096770;28;19908;-73
2021/11/05 11:10:56;;;;;;;;;;;13.70;92.90;;;;;;5101848;28;19935;-76
2021/11/05 11:13:27;;;;;;;;;;;13.70;92.90;;;;;;5092544;28;19908;-75
2021/11/05 11:15:53;;;;;;;;;;;13.70;93.00;;;;;;5085759;28;19989;-75
2021/11/05 11:18:19;;;;;;;;;;;13.70;93.00;;;;;;5091107;28;19987;-75
2021/11/05 11:20:44;;;;;;;;;;;13.90;93.20;;;;;;5098123;28;20375;-75
2021/11/05 11:23:11;;;;;;;;;;;14.00;93.20;;;;;;5091273;28;19919;-74
2021/11/05 11:25:36;;;;;;;;;;;14.10;93.00;;;;;;5105591;28;19916;-72
2021/11/05 11:28:02;;;;;;;;;;;14.20;93.10;;;;;;5098317;28;19908;-75
2021/11/05 11:30:28;;;;;;;;;;;14.30;92.90;;;;;;5090687;28;19957;-72
2021/11/05 11:32:55;;;;;;;;;;;14.30;92.90;;;;;;5094266;28;19908;-72
2021/11/05 11:35:20;;;;;;;;;;;14.40;93.00;;;;;;5090280;28;19915;-72
2021/11/05 11:37:46;;;;;;;;;;;14.40;93.00;;;;;;5090614;28;19916;-77
2021/11/05 11:40:12;;;;;;;;;;;14.50;92.90;;;;;;5090549;28;19930;-76
2021/11/05 11:42:38;;;;;;;;;;;14.50;92.70;;;;;;5090681;28;20235;-76
2021/11/05 11:45:11;;;;;;;;;;;14.50;92.60;;;;;;5091206;28;20242;-75
2021/11/05 11:47:44;;;;;;;;;;;14.60;92.80;;;;;;5090558;28;19931;-76
2021/11/05 11:50:29;;;;;;;;;;;14.70;92.90;;;;;;5090068;28;20338;-77
2021/11/05 11:53:03;;;;;;;;;;;14.90;92.70;;;;;;5090325;28;20004;-73
2021/11/05 11:55:29;;;;;;;;;;;14.90;92.50;;;;;;5089501;28;20061;-71
2021/11/05 11:58:08;;;;;;;;;;;14.80;92.40;;;;;;5089149;28;19995;-74
2021/11/05 12:00:34;;;;;;;;;;;14.80;92.40;;;;;;5089856;28;20051;-76
2021/11/05 12:03:04;;;;;;;;;;;14.80;92.50;;;;;;5089408;28;19919;-74
2021/11/05 12:05:30;;;;;;;;;;;14.80;92.40;;;;;;5085823;28;20024;-74
2021/11/05 12:08:11;;;;;;;;;;;14.80;92.40;;;;;;5089634;28;19969;-74
2021/11/05 12:10:37;;;;;;;;;;;14.90;92.50;;;;;;5089703;28;19939;-78
2021/11/05 12:13:23;;;;;;;;;;;14.90;92.50;;;;;;5088778;28;20359;-74
2021/11/05 12:16:07;;;;;;;;;;;15.00;92.50;;;;;;5089480;28;19974;-75
2021/11/05 12:18:33;;;;;;;;;;;15.20;92.40;;;;;;5089185;28;20219;-78
2021/11/05 12:21:16;;;;;;;;;;;15.20;92.30;;;;;;5088570;28;19912;-75
2021/11/05 12:23:41;;;;;;;;;;;15.10;91.90;;;;;;5088596;28;19958;-74
2021/11/05 12:26:07;;;;;;;;;;;14.90;91.70;;;;;;5089818;28;20314;-76
2021/11/05 12:28:43;;;;;;;;;;;14.70;91.80;;;;;;5089673;28;19912;-74
2021/11/05 12:31:28;;;;;;;;;;;14.60;92.00;;;;;;5089817;28;19939;-75
2021/11/05 12:33:55;;;;;;;;;;;14.70;92.10;;;;;;5089194;28;19908;-77
2021/11/05 12:36:20;;;;;;;;;;;14.80;92.20;;;;;;5088454;28;20366;-76
2021/11/05 12:39:04;;;;;;;;;;;14.80;91.90;;;;;;5088882;28;19920;-72
2021/11/05 12:41:29;;;;;;;;;;;14.80;91.80;;;;;;5088876;28;19944;-77
2021/11/05 12:44:09;;;;;;;;;;;14.80;91.90;;;;;;5088647;28;19943;-74
2021/11/05 12:46:42;;;;;;;;;;;14.80;91.90;;;;;;5087264;28;19908;-78
2021/11/05 12:49:12;;;;;;;;;;;14.90;91.60;;;;;;5088793;28;19920;-76
2021/11/05 12:51:42;;;;;;;;;;;14.90;91.60;;;;;;5088217;28;19908;-76
2021/11/05 12:54:13;;;;;;;;;;;14.90;91.50;;;;;;5087198;28;20286;-76
2021/11/05 12:56:40;;;;;;;;;;;14.80;91.50;;;;;;5086933;28;19912;-75
2021/11/05 12:59:10;;;;;;;;;;;14.70;91.60;;;;;;5089470;28;19944;-73
2021/11/05 13:01:36;;;;;;;;;;;14.70;91.70;;;;;;5087018;28;19909;-75
2021/11/05 13:04:07;;;;;;;;;;;14.60;91.60;;;;;;5088471;28;20473;-78
2021/11/05 13:07:00;;;;;;;;;;;14.50;91.60;;;;;;5089222;28;19960;-75
2021/11/05 13:09:37;;;;;;;;;;;14.50;91.70;;;;;;5080696;28;20414;-73
2021/11/05 13:12:10;;;;;;;;;;;14.50;91.80;;;;;;5087724;28;19916;-74
2021/11/05 13:14:40;;;;;;;;;;;14.40;91.80;;;;;;5088122;28;19912;-73
2021/11/05 13:17:12;;;;;;;;;;;14.50;91.90;;;;;;5088538;28;19951;-75
2021/11/05 13:19:43;;;;;;;;;;;14.60;92.00;;;;;;5088271;28;19908;-73
2021/11/05 13:22:08;;;;;;;;;;;14.60;91.90;;;;;;5086707;28;19913;-73
2021/11/05 13:24:34;;;;;;;;;;;14.60;91.70;;;;;;5088547;28;19908;-73
2021/11/05 13:27:06;;;;;;;;;;;14.60;91.80;;;;;;5087897;28;19908;-74
2021/11/05 13:29:32;;;;;;;;;;;14.60;91.80;;;;;;5086788;28;19928;-75
2021/11/05 13:32:13;;;;;;;;;;;14.60;91.80;;;;;;5089491;28;20274;-73
2021/11/05 13:34:39;;;;;;;;;;;14.50;91.80;;;;;;5087192;28;19916;-72
2021/11/05 13:37:05;;;;;;;;;;;14.50;91.80;;;;;;5089660;28;20312;-77
2021/11/05 13:39:30;;;;;;;;;;;14.50;91.80;;;;;;5092197;28;19912;-74
2021/11/05 13:41:56;;;;;;;;;;;14.60;91.90;;;;;;5092532;28;19912;-75
2021/11/05 13:44:22;;;;;;;;;;;14.50;91.80;;;;;;5093347;28;19908;-74
2021/11/05 13:46:47;;;;;;;;;;;14.60;91.80;;;;;;5092568;28;19947;-76
2021/11/05 13:49:13;;;;;;;;;;;14.60;91.80;;;;;;5090864;28;19924;-74
2021/11/05 13:51:40;;;;;;;;;;;14.60;91.80;;;;;;5092383;28;19908;-73
2021/11/05 13:54:07;;;;;;;;;;;14.60;91.70;;;;;;5091892;28;20513;-73
2021/11/05 13:56:34;;;;;;;;;;;14.60;91.80;;;;;;5091482;28;19912;-78
2021/11/05 13:59:02;;;;;;;;;;;14.60;91.80;;;;;;5093036;28;20003;-80
2021/11/05 14:01:29;;;;;;;;;;;14.60;91.80;;;;;;5091001;28;20303;-73
2021/11/05 14:03:56;;;;;;;;;;;14.70;91.70;;;;;;5091681;28;19908;-78
2021/11/05 14:06:22;;;;;;;;;;;14.60;91.70;;;;;;5092748;28;19947;-76
2021/11/05 14:08:48;;;;;;;;;;;14.70;91.60;;;;;;5091135;28;19960;-76
2021/11/05 14:11:14;;;;;;;;;;;14.60;91.50;;;;;;5092417;28;19917;-77
2021/11/05 14:13:39;;;;;;;;;;;14.60;91.50;;;;;;5091433;28;19908;-75
2021/11/05 14:16:11;;;;;;;;;;;14.60;91.50;;;;;;5092020;28;19920;-76
2021/11/05 14:18:37;;;;;;;;;;;14.50;91.40;;;;;;5092555;28;19920;-78
2021/11/05 14:21:18;;;;;;;;;;;14.50;91.50;;;;;;5092519;28;20007;-76
2021/11/05 14:23:44;;;;;;;;;;;14.50;91.60;;;;;;5091467;28;19920;-76